San Francisco, California
Current Conditions -  °F | °C
As of 7:56 AM on Monday 22 Dec 2014 (Local Time) from KSFO Reporting Station
Few Clouds Few Clouds  
Wind Chill: 55°   Ceiling: Unl
Heat Index: 55°   Visibility: 7mi
Dew Point: 55°   Wind: 3mph
Humidity: 100%   Direction: 290°WNW
Pressure: 30.27"   Gusts: NA
Location:  37.78°N, 122.42°W
Report Text: KSFO 221556Z 29003KT 7SM R28R/2000VP6000FT FEW001 13/13 A3027 RMK AO2 SLP250 FG VIS NW 1/2 T01280128
Loading
Personal Weather Stations






























Interactive Weather Map New forecast layout! Learn more

10-Day Weather Forecast

Advertisements
Track Severe Weather on mobile